Boyceville, Wisconsin
Current Conditions -  °F | °C
As of 4:35 PM on Monday 24 Nov 2014 (Local Time) from KLUM Reporting Station
Overcast Overcast  
Wind Chill:   Ceiling: 2100
Heat Index: 24°   Visibility: 10mi
Dew Point: 17°   Wind: 22mph
Humidity: 75%   Direction: 290°WNW
Pressure: 29.55"   Gusts: 31mph
Location:  45.04°N, 92.04°W
Report Text: KLUM 242235Z AUTO 29019G27KT 10SM OVC021 M04/M08 A2955 RMK AO2 T10451083
Loading
Personal Weather Stations






























Interactive Weather Map New forecast layout! Learn more

10-Day Weather Forecast

Advertisements
Track Severe Weather on mobile